Shiotamaru No8 — JD3239 — position and weather

sailwx.info

Track history (hours):
 
Tides and Currents Weather Stations Pressure Air Temp Water Temp Dewpoint Dewpoint Depression Visibility Wind Speed Wind Dir Waves Ship Positions

Shiotamaru No8

Last reported at 2018-Jul-20 13:58 UTC. Time now 2018-Jul-21 19:29 UTC.
Position N 35°05' E 139°36'.

Length 65 m.

Type: Ship. MMSI: 431002897.

Date/timePositionNaut miles runAvg speedWind from/ knotsBaromVisibWave heightAir tempDewpointWater temp
2018-Jul-20 13:58N 35°05' E 139°36'611.9
2018-Jul-20 13:29N 35°08' E 139°42'611.5
2018-Jul-20 13:00N 35°13' E 139°46'610.8
2018-Jul-20 12:28N 35°18' E 139°44'12 0.8
2018-Jul-19 21:36N 35°30' E 139°45'0 0.0
2018-Jul-19 21:27N 35°30' E 139°45'0 0.0
2018-Jul-19 19:33N 35°30' E 139°45'0 0.0
2018-Jul-19 19:24N 35°30' E 139°45'0 0.0
2018-Jul-19 19:00N 35°30' E 139°45'0 0.0
2018-Jul-19 17:36N 35°30' E 139°45'0 0.0
2018-Jul-19 10:42N 35°30' E 139°45'0 0.0
2018-Jul-19 10:18N 35°30' E 139°45'0 0.0
2018-Jul-19 09:54N 35°30' E 139°45'0 0.0
2018-Jul-19 09:12N 35°30' E 139°45'0 0.0
2018-Jul-19 06:21N 35°30' E 139°45'0 0.0
2018-Jul-19 05:12N 35°30' E 139°45'0 0.0
2018-Jul-19 05:00N 35°30' E 139°45'0 0.0
2018-Jul-19 04:30N 35°30' E 139°45'1 0.7
2018-Jul-19 02:54N 35°30' E 139°44'0 0.0
2018-Jul-18 23:17N 35°30' E 139°44'3 1.4
2018-Jul-18 20:53N 35°29' E 139°48'512.1
2018-Jul-18 20:28N 35°24' E 139°46'612.3
2018-Jul-18 20:00N 35°19' E 139°44'611.3
2018-Jul-18 19:30N 35°13' E 139°47'611.7
2018-Jul-18 18:58N 35°07' E 139°45'612.1
2018-Jul-18 18:29N 35°02' E 139°41'236 7.1
2018-Jul-17 09:02N 34°05' E 135°02'111.5
2018-Jul-17 08:55N 34°06' E 135°02'512.1
2018-Jul-17 08:30N 34°11' E 135°02'712.8
2018-Jul-17 07:58N 34°18' E 135°04'612.5
2018-Jul-17 07:30N 34°23' E 135°08'712.5
2018-Jul-17 06:56N 34°28' E 135°14'712.3
2018-Jul-17 06:23N 34°34' E 135°19'7 2.0
2018-Jul-17 02:48N 34°39' E 135°25'310.5
2018-Jul-17 02:30N 34°36' E 135°23'4 1.2
2018-Jul-16 22:41N 34°32' E 135°21'22 0.8
2018-Jul-15 19:40N 34°24' E 134°56'212.5
2018-Jul-15 19:30N 34°22' E 134°57'611.0
2018-Jul-15 19:00N 34°17' E 134°59'5 9.2
2018-Jul-15 18:30N 34°12' E 134°60'611.0
2018-Jul-15 17:55N 34°06' E 135°01'231 6.3
2018-Jul-14 05:14N 35°03' E 139°32'310.5
2018-Jul-14 04:58N 35°05' E 139°35'612.2
2018-Jul-14 04:28N 35°08' E 139°42'511.7
2018-Jul-14 04:00N 35°12' E 139°46'510.4
2018-Jul-14 03:30N 35°17' E 139°44'510.9
2018-Jul-14 03:00N 35°23' E 139°42'611.2
2018-Jul-14 02:30N 35°28' E 139°42'3 2.2
2018-Jul-14 01:22N 35°30' E 139°44'0 0.0
2018-Jul-13 23:58N 35°30' E 139°44'0 0.0
2018-Jul-13 23:22N 35°30' E 139°44'0 0.0
2018-Jul-13 22:51N 35°30' E 139°44'  
2018-Jul-11 04:18N 35°30' E 139°52'611.6
2018-Jul-11 03:47N 35°30' E 139°45'0 0.4
2018-Jul-11 02:36N 35°30' E 139°44'0 0.0
2018-Jul-11 02:12N 35°30' E 139°44'0 0.0
2018-Jul-11 01:57N 35°30' E 139°44'  
Track history (hours):
 
Tides and Currents Weather Stations Pressure Air Temp Water Temp Dewpoint Dewpoint Depression Visibility Wind Speed Wind Dir Waves Ship Positions

Shiotamaru No8

Last reported at 2018-Jul-20 13:58 UTC. Time now 2018-Jul-21 19:29 UTC.
Position N 35°05' E 139°36'.

Length 65 m.

Type: Ship. MMSI: 431002897.

Date/timePositionNaut miles runAvg speedWind from/ knotsBaromVisibWave heightAir tempDewpointWater temp
2018-Jul-20 13:58N 35°05' E 139°36'611.9
2018-Jul-20 13:29N 35°08' E 139°42'611.5
2018-Jul-20 13:00N 35°13' E 139°46'610.8
2018-Jul-20 12:28N 35°18' E 139°44'12 0.8
2018-Jul-19 21:36N 35°30' E 139°45'0 0.0
2018-Jul-19 21:27N 35°30' E 139°45'0 0.0
2018-Jul-19 19:33N 35°30' E 139°45'0 0.0
2018-Jul-19 19:24N 35°30' E 139°45'0 0.0
2018-Jul-19 19:00N 35°30' E 139°45'0 0.0
2018-Jul-19 17:36N 35°30' E 139°45'0 0.0
2018-Jul-19 10:42N 35°30' E 139°45'0 0.0
2018-Jul-19 10:18N 35°30' E 139°45'0 0.0
2018-Jul-19 09:54N 35°30' E 139°45'0 0.0
2018-Jul-19 09:12N 35°30' E 139°45'0 0.0
2018-Jul-19 06:21N 35°30' E 139°45'0 0.0
2018-Jul-19 05:12N 35°30' E 139°45'0 0.0
2018-Jul-19 05:00N 35°30' E 139°45'0 0.0
2018-Jul-19 04:30N 35°30' E 139°45'1 0.7
2018-Jul-19 02:54N 35°30' E 139°44'0 0.0
2018-Jul-18 23:17N 35°30' E 139°44'3 1.4
2018-Jul-18 20:53N 35°29' E 139°48'512.1
2018-Jul-18 20:28N 35°24' E 139°46'612.3
2018-Jul-18 20:00N 35°19' E 139°44'611.3
2018-Jul-18 19:30N 35°13' E 139°47'611.7
2018-Jul-18 18:58N 35°07' E 139°45'612.1
2018-Jul-18 18:29N 35°02' E 139°41'236 7.1
2018-Jul-17 09:02N 34°05' E 135°02'111.5
2018-Jul-17 08:55N 34°06' E 135°02'512.1
2018-Jul-17 08:30N 34°11' E 135°02'712.8
2018-Jul-17 07:58N 34°18' E 135°04'612.5
2018-Jul-17 07:30N 34°23' E 135°08'712.5
2018-Jul-17 06:56N 34°28' E 135°14'712.3
2018-Jul-17 06:23N 34°34' E 135°19'7 2.0
2018-Jul-17 02:48N 34°39' E 135°25'310.5
2018-Jul-17 02:30N 34°36' E 135°23'4 1.2
2018-Jul-16 22:41N 34°32' E 135°21'22 0.8
2018-Jul-15 19:40N 34°24' E 134°56'212.5
2018-Jul-15 19:30N 34°22' E 134°57'611.0
2018-Jul-15 19:00N 34°17' E 134°59'5 9.2
2018-Jul-15 18:30N 34°12' E 134°60'611.0
2018-Jul-15 17:55N 34°06' E 135°01'231 6.3
2018-Jul-14 05:14N 35°03' E 139°32'310.5
2018-Jul-14 04:58N 35°05' E 139°35'612.2
2018-Jul-14 04:28N 35°08' E 139°42'511.7
2018-Jul-14 04:00N 35°12' E 139°46'510.4
2018-Jul-14 03:30N 35°17' E 139°44'510.9
2018-Jul-14 03:00N 35°23' E 139°42'611.2
2018-Jul-14 02:30N 35°28' E 139°42'3 2.2
2018-Jul-14 01:22N 35°30' E 139°44'0 0.0
2018-Jul-13 23:58N 35°30' E 139°44'0 0.0
2018-Jul-13 23:22N 35°30' E 139°44'0 0.0
2018-Jul-13 22:51N 35°30' E 139°44'  
2018-Jul-11 04:18N 35°30' E 139°52'611.6
2018-Jul-11 03:47N 35°30' E 139°45'0 0.4
2018-Jul-11 02:36N 35°30' E 139°44'0 0.0
2018-Jul-11 02:12N 35°30' E 139°44'0 0.0
2018-Jul-11 01:57N 35°30' E 139°44'  

Dump ship's entire track history